sensor_id;sensor_type;location;lat;lon;timestamp;temperature;humidity
14079;DHT22;7115;50.150;8.568;2023-11-21T00:01:33;11.10;99.90
14079;DHT22;7115;50.150;8.568;2023-11-21T00:04:01;11.20;99.90
14079;DHT22;7115;50.150;8.568;2023-11-21T00:06:28;11.20;99.90
14079;DHT22;7115;50.150;8.568;2023-11-21T00:08:56;11.10;99.90
14079;DHT22;7115;50.150;8.568;2023-11-21T00:11:23;11.10;99.90
14079;DHT22;7115;50.150;8.568;2023-11-21T00:13:51;11.10;99.90
14079;DHT22;7115;50.150;8.568;2023-11-21T00:16:18;11.10;99.90
14079;DHT22;7115;50.150;8.568;2023-11-21T00:18:46;11.00;99.90
14079;DHT22;7115;50.150;8.568;2023-11-21T00:21:14;11.10;99.90
14079;DHT22;7115;50.150;8.568;2023-11-21T00:23:41;11.10;99.90
14079;DHT22;7115;50.150;8.568;2023-11-21T00:26:09;11.10;99.90
14079;DHT22;7115;50.150;8.568;2023-11-21T00:28:36;11.10;99.90
14079;DHT22;7115;50.150;8.568;2023-11-21T00:31:03;11.10;99.90
14079;DHT22;7115;50.150;8.568;2023-11-21T00:33:31;11.20;99.90
14079;DHT22;7115;50.150;8.568;2023-11-21T00:35:58;11.20;99.90
14079;DHT22;7115;50.150;8.568;2023-11-21T00:38:27;11.20;99.90
14079;DHT22;7115;50.150;8.568;2023-11-21T00:40:54;11.20;99.90
14079;DHT22;7115;50.150;8.568;2023-11-21T00:43:22;11.20;99.90
14079;DHT22;7115;50.150;8.568;2023-11-21T00:45:50;11.20;99.90
14079;DHT22;7115;50.150;8.568;2023-11-21T00:48:17;11.20;99.90
14079;DHT22;7115;50.150;8.568;2023-11-21T00:50:45;11.30;99.90
14079;DHT22;7115;50.150;8.568;2023-11-21T00:53:12;11.30;99.90
14079;DHT22;7115;50.150;8.568;2023-11-21T00:55:40;11.30;99.90
14079;DHT22;7115;50.150;8.568;2023-11-21T00:58:07;11.30;99.90
14079;DHT22;7115;50.150;8.568;2023-11-21T01:00:34;11.30;99.90
14079;DHT22;7115;50.150;8.568;2023-11-21T01:03:01;11.30;99.90
14079;DHT22;7115;50.150;8.568;2023-11-21T01:05:29;11.30;99.90
14079;DHT22;7115;50.150;8.568;2023-11-21T01:07:56;11.30;99.90
14079;DHT22;7115;50.150;8.568;2023-11-21T01:10:23;11.30;99.90
14079;DHT22;7115;50.150;8.568;2023-11-21T01:12:53;11.30;99.90
14079;DHT22;7115;50.150;8.568;2023-11-21T01:15:20;11.30;99.90
14079;DHT22;7115;50.150;8.568;2023-11-21T01:17:47;11.30;99.90
14079;DHT22;7115;50.150;8.568;2023-11-21T01:20:15;11.30;99.90
14079;DHT22;7115;50.150;8.568;2023-11-21T01:22:42;11.30;99.90
14079;DHT22;7115;50.150;8.568;2023-11-21T01:25:10;11.30;99.90
14079;DHT22;7115;50.150;8.568;2023-11-21T01:27:37;11.30;99.90
14079;DHT22;7115;50.150;8.568;2023-11-21T01:30:06;11.30;99.90
14079;DHT22;7115;50.150;8.568;2023-11-21T01:32:34;11.30;99.90
14079;DHT22;7115;50.150;8.568;2023-11-21T01:35:02;11.30;99.90
14079;DHT22;7115;50.150;8.568;2023-11-21T01:37:29;11.30;99.90
14079;DHT22;7115;50.150;8.568;2023-11-21T01:39:57;11.30;99.90
14079;DHT22;7115;50.150;8.568;2023-11-21T01:42:24;11.40;99.90
14079;DHT22;7115;50.150;8.568;2023-11-21T01:44:51;11.40;99.90
14079;DHT22;7115;50.150;8.568;2023-11-21T01:47:19;11.30;99.90
14079;DHT22;7115;50.150;8.568;2023-11-21T01:49:47;11.30;99.90
14079;DHT22;7115;50.150;8.568;2023-11-21T01:52:15;11.20;99.90
14079;DHT22;7115;50.150;8.568;2023-11-21T01:54:42;11.20;99.90
14079;DHT22;7115;50.150;8.568;2023-11-21T01:57:09;11.20;99.90
14079;DHT22;7115;50.150;8.568;2023-11-21T01:59:37;11.20;99.90
14079;DHT22;7115;50.150;8.568;2023-11-21T02:02:05;11.20;99.90
14079;DHT22;7115;50.150;8.568;2023-11-21T02:04:34;11.20;99.90
14079;DHT22;7115;50.150;8.568;2023-11-21T02:07:01;11.20;99.90
14079;DHT22;7115;50.150;8.568;2023-11-21T02:09:32;11.20;99.90
14079;DHT22;7115;50.150;8.568;2023-11-21T02:12:02;11.30;99.90
14079;DHT22;7115;50.150;8.568;2023-11-21T02:14:29;11.30;99.90
14079;DHT22;7115;50.150;8.568;2023-11-21T02:16:57;11.30;99.90
14079;DHT22;7115;50.150;8.568;2023-11-21T02:19:24;11.30;99.90
14079;DHT22;7115;50.150;8.568;2023-11-21T02:21:58;11.30;99.90
14079;DHT22;7115;50.150;8.568;2023-11-21T02:24:32;11.30;99.90
14079;DHT22;7115;50.150;8.568;2023-11-21T02:26:59;11.30;99.90
14079;DHT22;7115;50.150;8.568;2023-11-21T02:29:26;11.30;99.90
14079;DHT22;7115;50.150;8.568;2023-11-21T02:31:55;11.30;99.90
14079;DHT22;7115;50.150;8.568;2023-11-21T02:34:23;11.30;99.90
14079;DHT22;7115;50.150;8.568;2023-11-21T02:36:52;11.40;99.90
14079;DHT22;7115;50.150;8.568;2023-11-21T02:39:19;11.30;99.90
14079;DHT22;7115;50.150;8.568;2023-11-21T02:41:50;11.40;99.90
14079;DHT22;7115;50.150;8.568;2023-11-21T02:44:17;11.30;99.90
14079;DHT22;7115;50.150;8.568;2023-11-21T02:46:44;11.30;99.90
14079;DHT22;7115;50.150;8.568;2023-11-21T02:49:11;11.30;99.90
14079;DHT22;7115;50.150;8.568;2023-11-21T02:51:38;11.30;99.90
14079;DHT22;7115;50.150;8.568;2023-11-21T02:54:06;11.30;99.90
14079;DHT22;7115;50.150;8.568;2023-11-21T02:56:34;11.30;99.90
14079;DHT22;7115;50.150;8.568;2023-11-21T02:59:03;11.30;99.90
14079;DHT22;7115;50.150;8.568;2023-11-21T03:01:30;11.30;99.90
14079;DHT22;7115;50.150;8.568;2023-11-21T03:03:57;11.30;99.90
14079;DHT22;7115;50.150;8.568;2023-11-21T03:06:24;11.20;99.90
14079;DHT22;7115;50.150;8.568;2023-11-21T03:08:51;11.30;99.90
14079;DHT22;7115;50.150;8.568;2023-11-21T03:11:18;11.30;99.90
14079;DHT22;7115;50.150;8.568;2023-11-21T03:13:45;11.30;99.90
14079;DHT22;7115;50.150;8.568;2023-11-21T03:16:15;11.30;99.90
14079;DHT22;7115;50.150;8.568;2023-11-21T03:18:42;11.30;99.90
14079;DHT22;7115;50.150;8.568;2023-11-21T03:21:09;11.30;99.90
14079;DHT22;7115;50.150;8.568;2023-11-21T03:23:36;11.30;99.90
14079;DHT22;7115;50.150;8.568;2023-11-21T03:26:03;11.30;99.90
14079;DHT22;7115;50.150;8.568;2023-11-21T03:28:30;11.30;99.90
14079;DHT22;7115;50.150;8.568;2023-11-21T03:30:58;11.30;99.90
14079;DHT22;7115;50.150;8.568;2023-11-21T03:33:26;11.30;99.90
14079;DHT22;7115;50.150;8.568;2023-11-21T03:35:53;11.30;99.90
14079;DHT22;7115;50.150;8.568;2023-11-21T03:38:20;11.30;99.90
14079;DHT22;7115;50.150;8.568;2023-11-21T03:40:47;11.30;99.90
14079;DHT22;7115;50.150;8.568;2023-11-21T03:43:14;11.30;99.90
14079;DHT22;7115;50.150;8.568;2023-11-21T03:45:41;11.30;99.90
14079;DHT22;7115;50.150;8.568;2023-11-21T03:48:08;11.30;99.90
14079;DHT22;7115;50.150;8.568;2023-11-21T03:50:37;11.30;99.90
14079;DHT22;7115;50.150;8.568;2023-11-21T03:53:04;11.30;99.90
14079;DHT22;7115;50.150;8.568;2023-11-21T03:55:31;11.30;99.90
14079;DHT22;7115;50.150;8.568;2023-11-21T03:57:58;11.30;99.90
14079;DHT22;7115;50.150;8.568;2023-11-21T04:00:25;11.30;99.90
14079;DHT22;7115;50.150;8.568;2023-11-21T04:02:55;11.30;99.90
14079;DHT22;7115;50.150;8.568;2023-11-21T04:05:23;11.30;99.90
14079;DHT22;7115;50.150;8.568;2023-11-21T04:07:52;11.30;99.90
14079;DHT22;7115;50.150;8.568;2023-11-21T04:10:19;11.30;99.90
14079;DHT22;7115;50.150;8.568;2023-11-21T04:12:46;11.30;99.90
14079;DHT22;7115;50.150;8.568;2023-11-21T04:15:13;11.30;99.90
14079;DHT22;7115;50.150;8.568;2023-11-21T04:17:41;11.30;99.90
14079;DHT22;7115;50.150;8.568;2023-11-21T04:20:09;11.30;99.90
14079;DHT22;7115;50.150;8.568;2023-11-21T04:22:38;11.30;99.90
14079;DHT22;7115;50.150;8.568;2023-11-21T04:25:10;11.30;99.90
14079;DHT22;7115;50.150;8.568;2023-11-21T04:27:39;11.30;99.90
14079;DHT22;7115;50.150;8.568;2023-11-21T04:30:06;11.30;99.90
14079;DHT22;7115;50.150;8.568;2023-11-21T04:32:34;11.30;99.90
14079;DHT22;7115;50.150;8.568;2023-11-21T04:35:00;11.30;99.90
14079;DHT22;7115;50.150;8.568;2023-11-21T04:37:27;11.30;99.90
14079;DHT22;7115;50.150;8.568;2023-11-21T04:39:54;11.30;99.90
14079;DHT22;7115;50.150;8.568;2023-11-21T04:42:23;11.40;99.90
14079;DHT22;7115;50.150;8.568;2023-11-21T04:44:50;11.40;99.90
14079;DHT22;7115;50.150;8.568;2023-11-21T04:47:16;11.30;99.90
14079;DHT22;7115;50.150;8.568;2023-11-21T04:49:46;11.30;99.90
14079;DHT22;7115;50.150;8.568;2023-11-21T04:52:16;11.30;99.90
14079;DHT22;7115;50.150;8.568;2023-11-21T04:54:43;11.30;99.90
14079;DHT22;7115;50.150;8.568;2023-11-21T04:57:10;11.30;99.90
14079;DHT22;7115;50.150;8.568;2023-11-21T04:59:38;11.30;99.90
14079;DHT22;7115;50.150;8.568;2023-11-21T05:02:05;11.30;99.90
14079;DHT22;7115;50.150;8.568;2023-11-21T05:04:32;11.30;99.90
14079;DHT22;7115;50.150;8.568;2023-11-21T05:06:59;11.30;99.90
14079;DHT22;7115;50.150;8.568;2023-11-21T05:09:27;11.30;99.90
14079;DHT22;7115;50.150;8.568;2023-11-21T05:11:58;11.30;99.90
14079;DHT22;7115;50.150;8.568;2023-11-21T05:14:26;11.20;99.90
14079;DHT22;7115;50.150;8.568;2023-11-21T05:16:55;11.20;99.90
14079;DHT22;7115;50.150;8.568;2023-11-21T05:19:22;11.20;99.90
14079;DHT22;7115;50.150;8.568;2023-11-21T05:21:49;11.20;99.90
14079;DHT22;7115;50.150;8.568;2023-11-21T05:24:16;11.20;99.90
14079;DHT22;7115;50.150;8.568;2023-11-21T05:26:43;11.20;99.90
14079;DHT22;7115;50.150;8.568;2023-11-21T05:29:10;11.20;99.90
14079;DHT22;7115;50.150;8.568;2023-11-21T05:31:37;11.20;99.90
14079;DHT22;7115;50.150;8.568;2023-11-21T05:34:06;11.20;99.90
14079;DHT22;7115;50.150;8.568;2023-11-21T05:36:33;11.20;99.90
14079;DHT22;7115;50.150;8.568;2023-11-21T05:39:00;11.10;99.90
14079;DHT22;7115;50.150;8.568;2023-11-21T05:41:27;11.20;99.90
14079;DHT22;7115;50.150;8.568;2023-11-21T05:43:54;11.10;99.90
14079;DHT22;7115;50.150;8.568;2023-11-21T05:46:21;11.10;99.90
14079;DHT22;7115;50.150;8.568;2023-11-21T05:48:48;11.10;99.90
14079;DHT22;7115;50.150;8.568;2023-11-21T05:51:16;11.10;99.90
14079;DHT22;7115;50.150;8.568;2023-11-21T05:53:44;11.10;99.90
14079;DHT22;7115;50.150;8.568;2023-11-21T05:56:11;11.10;99.90
14079;DHT22;7115;50.150;8.568;2023-11-21T05:58:38;11.10;99.90
14079;DHT22;7115;50.150;8.568;2023-11-21T06:01:06;11.10;99.90
14079;DHT22;7115;50.150;8.568;2023-11-21T06:03:39;11.10;99.90
14079;DHT22;7115;50.150;8.568;2023-11-21T06:06:06;11.10;99.90
14079;DHT22;7115;50.150;8.568;2023-11-21T06:08:35;11.10;99.90
14079;DHT22;7115;50.150;8.568;2023-11-21T06:11:02;11.10;99.90
14079;DHT22;7115;50.150;8.568;2023-11-21T06:13:29;11.10;99.90
14079;DHT22;7115;50.150;8.568;2023-11-21T06:15:57;11.10;99.90
14079;DHT22;7115;50.150;8.568;2023-11-21T06:18:24;11.10;99.90
14079;DHT22;7115;50.150;8.568;2023-11-21T06:20:51;11.10;99.90
14079;DHT22;7115;50.150;8.568;2023-11-21T06:23:19;11.00;99.90
14079;DHT22;7115;50.150;8.568;2023-11-21T06:25:48;11.10;99.90
14079;DHT22;7115;50.150;8.568;2023-11-21T06:28:15;11.10;99.90
14079;DHT22;7115;50.150;8.568;2023-11-21T06:30:44;11.10;99.90
14079;DHT22;7115;50.150;8.568;2023-11-21T06:33:12;11.10;99.90
14079;DHT22;7115;50.150;8.568;2023-11-21T06:35:39;11.10;99.90
14079;DHT22;7115;50.150;8.568;2023-11-21T06:38:06;11.10;99.90
14079;DHT22;7115;50.150;8.568;2023-11-21T06:40:33;11.10;99.90
14079;DHT22;7115;50.150;8.568;2023-11-21T06:43:02;11.10;99.90
14079;DHT22;7115;50.150;8.568;2023-11-21T06:45:29;11.10;99.90
14079;DHT22;7115;50.150;8.568;2023-11-21T06:47:56;11.10;99.90
14079;DHT22;7115;50.150;8.568;2023-11-21T06:50:23;11.10;99.90
14079;DHT22;7115;50.150;8.568;2023-11-21T06:52:50;11.20;99.90
14079;DHT22;7115;50.150;8.568;2023-11-21T06:55:17;11.20;99.90
14079;DHT22;7115;50.150;8.568;2023-11-21T06:57:44;11.20;99.90
14079;DHT22;7115;50.150;8.568;2023-11-21T07:00:15;11.10;99.90
14079;DHT22;7115;50.150;8.568;2023-11-21T07:02:42;11.20;99.90
14079;DHT22;7115;50.150;8.568;2023-11-21T07:05:09;11.20;99.90
14079;DHT22;7115;50.150;8.568;2023-11-21T07:07:36;11.20;99.90
14079;DHT22;7115;50.150;8.568;2023-11-21T07:10:05;11.10;99.90
14079;DHT22;7115;50.150;8.568;2023-11-21T07:12:32;11.10;99.90
14079;DHT22;7115;50.150;8.568;2023-11-21T07:14:59;11.10;99.90
14079;DHT22;7115;50.150;8.568;2023-11-21T07:17:28;11.10;99.90
14079;DHT22;7115;50.150;8.568;2023-11-21T07:19:55;11.10;99.90
14079;DHT22;7115;50.150;8.568;2023-11-21T07:22:22;11.10;99.90
14079;DHT22;7115;50.150;8.568;2023-11-21T07:24:49;11.10;99.90
14079;DHT22;7115;50.150;8.568;2023-11-21T07:27:19;11.20;99.90
14079;DHT22;7115;50.150;8.568;2023-11-21T07:29:46;11.20;99.90
14079;DHT22;7115;50.150;8.568;2023-11-21T07:32:15;11.20;99.90
14079;DHT22;7115;50.150;8.568;2023-11-21T07:34:43;11.20;99.90
14079;DHT22;7115;50.150;8.568;2023-11-21T07:37:10;11.30;99.90
14079;DHT22;7115;50.150;8.568;2023-11-21T07:39:37;11.30;99.90
14079;DHT22;7115;50.150;8.568;2023-11-21T07:42:04;11.30;99.90
14079;DHT22;7115;50.150;8.568;2023-11-21T07:44:31;11.30;99.90
14079;DHT22;7115;50.150;8.568;2023-11-21T07:46:58;11.30;99.90
14079;DHT22;7115;50.150;8.568;2023-11-21T07:49:25;11.40;99.90
14079;DHT22;7115;50.150;8.568;2023-11-21T07:51:54;11.40;99.90
14079;DHT22;7115;50.150;8.568;2023-11-21T07:54:21;11.40;99.90
14079;DHT22;7115;50.150;8.568;2023-11-21T07:56:48;11.40;99.90
14079;DHT22;7115;50.150;8.568;2023-11-21T07:59:15;11.50;99.90
14079;DHT22;7115;50.150;8.568;2023-11-21T08:01:42;11.50;99.90
14079;DHT22;7115;50.150;8.568;2023-11-21T08:04:10;11.50;99.90
14079;DHT22;7115;50.150;8.568;2023-11-21T08:06:37;11.60;99.90
14079;DHT22;7115;50.150;8.568;2023-11-21T08:09:05;11.60;99.90
14079;DHT22;7115;50.150;8.568;2023-11-21T08:11:35;11.60;99.90
14079;DHT22;7115;50.150;8.568;2023-11-21T08:14:02;11.60;99.90
14079;DHT22;7115;50.150;8.568;2023-11-21T08:16:29;11.60;99.90
14079;DHT22;7115;50.150;8.568;2023-11-21T08:18:56;11.70;99.90
14079;DHT22;7115;50.150;8.568;2023-11-21T08:21:23;11.70;99.90
14079;DHT22;7115;50.150;8.568;2023-11-21T08:23:51;11.70;99.90
14079;DHT22;7115;50.150;8.568;2023-11-21T08:26:22;11.70;99.90
14079;DHT22;7115;50.150;8.568;2023-11-21T08:28:50;11.70;99.90
14079;DHT22;7115;50.150;8.568;2023-11-21T08:31:24;11.80;99.90
14079;DHT22;7115;50.150;8.568;2023-11-21T08:33:51;11.80;99.90
14079;DHT22;7115;50.150;8.568;2023-11-21T08:36:21;11.90;99.90
14079;DHT22;7115;50.150;8.568;2023-11-21T08:38:51;11.90;99.90
14079;DHT22;7115;50.150;8.568;2023-11-21T08:41:22;11.90;99.90
14079;DHT22;7115;50.150;8.568;2023-11-21T08:43:50;11.90;99.90
14079;DHT22;7115;50.150;8.568;2023-11-21T08:46:18;11.90;99.90
14079;DHT22;7115;50.150;8.568;2023-11-21T08:48:45;11.90;99.90
14079;DHT22;7115;50.150;8.568;2023-11-21T08:51:13;12.00;99.90
14079;DHT22;7115;50.150;8.568;2023-11-21T08:53:41;11.90;99.90
14079;DHT22;7115;50.150;8.568;2023-11-21T08:56:12;12.00;99.90
14079;DHT22;7115;50.150;8.568;2023-11-21T08:58:40;11.90;99.90
14079;DHT22;7115;50.150;8.568;2023-11-21T09:01:08;11.90;99.90
14079;DHT22;7115;50.150;8.568;2023-11-21T09:03:35;11.90;99.90
14079;DHT22;7115;50.150;8.568;2023-11-21T09:06:03;11.80;99.90
14079;DHT22;7115;50.150;8.568;2023-11-21T09:08:31;11.80;99.90
14079;DHT22;7115;50.150;8.568;2023-11-21T09:10:58;11.80;99.90
14079;DHT22;7115;50.150;8.568;2023-11-21T09:13:25;11.70;99.90
14079;DHT22;7115;50.150;8.568;2023-11-21T09:15:54;11.70;99.90
14079;DHT22;7115;50.150;8.568;2023-11-21T09:18:21;11.80;99.90
14079;DHT22;7115;50.150;8.568;2023-11-21T09:20:48;11.80;99.90
14079;DHT22;7115;50.150;8.568;2023-11-21T09:23:15;11.90;99.90
14079;DHT22;7115;50.150;8.568;2023-11-21T09:25:42;11.90;99.90
14079;DHT22;7115;50.150;8.568;2023-11-21T09:28:13;11.90;99.90
14079;DHT22;7115;50.150;8.568;2023-11-21T09:30:40;12.00;99.90
14079;DHT22;7115;50.150;8.568;2023-11-21T09:33:09;12.00;99.90
14079;DHT22;7115;50.150;8.568;2023-11-21T09:35:37;12.10;99.90
14079;DHT22;7115;50.150;8.568;2023-11-21T09:38:05;12.20;99.90
14079;DHT22;7115;50.150;8.568;2023-11-21T09:40:38;12.20;99.90
14079;DHT22;7115;50.150;8.568;2023-11-21T09:43:07;12.30;99.90
14079;DHT22;7115;50.150;8.568;2023-11-21T09:45:35;12.40;99.90
14079;DHT22;7115;50.150;8.568;2023-11-21T09:48:02;12.50;99.90
14079;DHT22;7115;50.150;8.568;2023-11-21T09:50:31;12.70;99.90
14079;DHT22;7115;50.150;8.568;2023-11-21T09:53:07;13.50;99.90
14079;DHT22;7115;50.150;8.568;2023-11-21T09:55:37;14.50;99.90
14079;DHT22;7115;50.150;8.568;2023-11-21T09:58:09;15.30;99.90
14079;DHT22;7115;50.150;8.568;2023-11-21T10:00:40;15.80;99.90
14079;DHT22;7115;50.150;8.568;2023-11-21T10:03:08;16.30;99.90
14079;DHT22;7115;50.150;8.568;2023-11-21T10:05:37;17.10;99.90
14079;DHT22;7115;50.150;8.568;2023-11-21T10:08:07;17.90;99.90
14079;DHT22;7115;50.150;8.568;2023-11-21T10:10:35;18.70;99.90
14079;DHT22;7115;50.150;8.568;2023-11-21T10:13:03;19.30;99.90
14079;DHT22;7115;50.150;8.568;2023-11-21T10:15:34;19.80;99.90
14079;DHT22;7115;50.150;8.568;2023-11-21T10:18:02;19.80;99.90
14079;DHT22;7115;50.150;8.568;2023-11-21T10:20:31;19.80;99.90
14079;DHT22;7115;50.150;8.568;2023-11-21T10:23:01;19.80;99.90
14079;DHT22;7115;50.150;8.568;2023-11-21T10:25:29;19.90;99.90
14079;DHT22;7115;50.150;8.568;2023-11-21T10:27:58;19.80;99.90
14079;DHT22;7115;50.150;8.568;2023-11-21T10:30:33;19.50;99.90
14079;DHT22;7115;50.150;8.568;2023-11-21T10:33:00;19.20;99.90
14079;DHT22;7115;50.150;8.568;2023-11-21T10:35:39;18.90;99.90
14079;DHT22;7115;50.150;8.568;2023-11-21T10:38:10;18.70;99.90
14079;DHT22;7115;50.150;8.568;2023-11-21T10:40:38;18.50;99.90
14079;DHT22;7115;50.150;8.568;2023-11-21T10:43:06;18.40;99.90
14079;DHT22;7115;50.150;8.568;2023-11-21T10:45:36;18.00;99.90
14079;DHT22;7115;50.150;8.568;2023-11-21T10:48:05;18.00;99.90
14079;DHT22;7115;50.150;8.568;2023-11-21T10:50:34;17.90;99.90
14079;DHT22;7115;50.150;8.568;2023-11-21T10:53:03;17.70;99.90
14079;DHT22;7115;50.150;8.568;2023-11-21T10:55:32;17.60;99.90
14079;DHT22;7115;50.150;8.568;2023-11-21T10:58:01;17.30;99.90
14079;DHT22;7115;50.150;8.568;2023-11-21T11:00:29;17.20;99.90
14079;DHT22;7115;50.150;8.568;2023-11-21T11:02:57;17.10;99.90
14079;DHT22;7115;50.150;8.568;2023-11-21T11:05:27;17.10;99.90
14079;DHT22;7115;50.150;8.568;2023-11-21T11:08:05;17.10;99.90
14079;DHT22;7115;50.150;8.568;2023-11-21T11:10:34;17.10;99.90
14079;DHT22;7115;50.150;8.568;2023-11-21T11:13:02;17.10;99.90
14079;DHT22;7115;50.150;8.568;2023-11-21T11:15:29;17.10;99.90
14079;DHT22;7115;50.150;8.568;2023-11-21T11:17:56;17.10;99.90
14079;DHT22;7115;50.150;8.568;2023-11-21T11:20:31;17.00;99.90
14079;DHT22;7115;50.150;8.568;2023-11-21T11:23:17;16.80;99.90
14079;DHT22;7115;50.150;8.568;2023-11-21T11:26:12;16.70;99.90
14079;DHT22;7115;50.150;8.568;2023-11-21T11:28:47;16.60;99.90
14079;DHT22;7115;50.150;8.568;2023-11-21T11:31:26;16.50;99.90
14079;DHT22;7115;50.150;8.568;2023-11-21T11:33:58;16.60;99.90
14079;DHT22;7115;50.150;8.568;2023-11-21T11:36:36;16.50;99.90
14079;DHT22;7115;50.150;8.568;2023-11-21T11:39:27;16.40;99.90
14079;DHT22;7115;50.150;8.568;2023-11-21T11:41:56;16.30;99.90
14079;DHT22;7115;50.150;8.568;2023-11-21T11:44:46;16.20;99.90
14079;DHT22;7115;50.150;8.568;2023-11-21T11:47:16;16.20;99.90
14079;DHT22;7115;50.150;8.568;2023-11-21T11:49:56;16.10;99.90
14079;DHT22;7115;50.150;8.568;2023-11-21T11:52:36;16.10;99.90
14079;DHT22;7115;50.150;8.568;2023-11-21T11:55:04;16.00;99.90
14079;DHT22;7115;50.150;8.568;2023-11-21T11:57:33;15.90;99.90
14079;DHT22;7115;50.150;8.568;2023-11-21T12:00:15;15.80;99.90
14079;DHT22;7115;50.150;8.568;2023-11-21T12:02:45;15.90;99.90
14079;DHT22;7115;50.150;8.568;2023-11-21T12:05:14;15.80;99.90
14079;DHT22;7115;50.150;8.568;2023-11-21T12:07:46;15.80;99.90
14079;DHT22;7115;50.150;8.568;2023-11-21T12:10:15;15.70;99.90
14079;DHT22;7115;50.150;8.568;2023-11-21T12:12:50;15.70;99.90
14079;DHT22;7115;50.150;8.568;2023-11-21T12:15:19;15.70;99.90
14079;DHT22;7115;50.150;8.568;2023-11-21T12:17:46;15.60;99.90
14079;DHT22;7115;50.150;8.568;2023-11-21T12:20:14;15.50;99.90
14079;DHT22;7115;50.150;8.568;2023-11-21T12:22:43;15.50;99.90
14079;DHT22;7115;50.150;8.568;2023-11-21T12:25:11;15.40;99.90
14079;DHT22;7115;50.150;8.568;2023-11-21T12:27:43;15.40;99.90
14079;DHT22;7115;50.150;8.568;2023-11-21T12:30:13;15.20;99.90
14079;DHT22;7115;50.150;8.568;2023-11-21T12:32:40;15.10;99.90
14079;DHT22;7115;50.150;8.568;2023-11-21T12:35:10;15.00;99.90
14079;DHT22;7115;50.150;8.568;2023-11-21T12:37:38;14.90;99.90
14079;DHT22;7115;50.150;8.568;2023-11-21T12:40:07;14.80;99.90
14079;DHT22;7115;50.150;8.568;2023-11-21T12:42:39;14.70;99.90
14079;DHT22;7115;50.150;8.568;2023-11-21T12:45:20;14.70;99.90
14079;DHT22;7115;50.150;8.568;2023-11-21T12:47:49;14.70;99.90
14079;DHT22;7115;50.150;8.568;2023-11-21T12:50:19;14.60;99.90
14079;DHT22;7115;50.150;8.568;2023-11-21T12:52:51;14.60;99.90
14079;DHT22;7115;50.150;8.568;2023-11-21T12:55:19;14.50;99.90
14079;DHT22;7115;50.150;8.568;2023-11-21T12:57:49;14.40;99.90
14079;DHT22;7115;50.150;8.568;2023-11-21T13:00:28;14.40;99.90
14079;DHT22;7115;50.150;8.568;2023-11-21T13:02:57;14.20;99.90
14079;DHT22;7115;50.150;8.568;2023-11-21T13:05:26;14.10;99.90
14079;DHT22;7115;50.150;8.568;2023-11-21T13:07:54;14.00;99.90
14079;DHT22;7115;50.150;8.568;2023-11-21T13:10:23;14.00;99.90
14079;DHT22;7115;50.150;8.568;2023-11-21T13:12:58;14.00;99.90
14079;DHT22;7115;50.150;8.568;2023-11-21T13:15:28;14.00;99.90
14079;DHT22;7115;50.150;8.568;2023-11-21T13:17:58;14.00;99.90
14079;DHT22;7115;50.150;8.568;2023-11-21T13:20:25;14.10;99.90
14079;DHT22;7115;50.150;8.568;2023-11-21T13:22:55;14.10;99.90
14079;DHT22;7115;50.150;8.568;2023-11-21T13:25:27;14.10;99.90
14079;DHT22;7115;50.150;8.568;2023-11-21T13:27:54;14.20;99.90
14079;DHT22;7115;50.150;8.568;2023-11-21T13:30:22;14.20;99.90
14079;DHT22;7115;50.150;8.568;2023-11-21T13:32:55;14.20;99.90
14079;DHT22;7115;50.150;8.568;2023-11-21T13:35:28;14.20;99.90
14079;DHT22;7115;50.150;8.568;2023-11-21T13:38:05;14.10;99.90
14079;DHT22;7115;50.150;8.568;2023-11-21T13:40:33;14.10;99.90
14079;DHT22;7115;50.150;8.568;2023-11-21T13:43:13;14.10;99.90
14079;DHT22;7115;50.150;8.568;2023-11-21T13:45:44;14.10;99.90
14079;DHT22;7115;50.150;8.568;2023-11-21T13:48:13;14.00;99.90
14079;DHT22;7115;50.150;8.568;2023-11-21T13:50:41;14.00;99.90
14079;DHT22;7115;50.150;8.568;2023-11-21T13:53:15;14.00;99.90
14079;DHT22;7115;50.150;8.568;2023-11-21T13:55:49;14.00;99.90
14079;DHT22;7115;50.150;8.568;2023-11-21T13:58:17;13.90;99.90
14079;DHT22;7115;50.150;8.568;2023-11-21T14:00:50;13.90;99.90
14079;DHT22;7115;50.150;8.568;2023-11-21T14:03:24;13.80;99.90
14079;DHT22;7115;50.150;8.568;2023-11-21T14:06:06;13.80;99.90
14079;DHT22;7115;50.150;8.568;2023-11-21T14:08:41;13.70;99.90
14079;DHT22;7115;50.150;8.568;2023-11-21T14:11:08;13.70;99.90
14079;DHT22;7115;50.150;8.568;2023-11-21T14:13:38;13.70;99.90
14079;DHT22;7115;50.150;8.568;2023-11-21T14:16:06;13.70;99.90
14079;DHT22;7115;50.150;8.568;2023-11-21T14:18:38;13.60;99.90
14079;DHT22;7115;50.150;8.568;2023-11-21T14:21:17;13.60;99.90
14079;DHT22;7115;50.150;8.568;2023-11-21T14:23:44;13.60;99.90
14079;DHT22;7115;50.150;8.568;2023-11-21T14:26:12;13.50;99.90
14079;DHT22;7115;50.150;8.568;2023-11-21T14:28:42;13.50;99.90
14079;DHT22;7115;50.150;8.568;2023-11-21T14:31:09;13.50;99.90
14079;DHT22;7115;50.150;8.568;2023-11-21T14:33:42;13.40;99.90
14079;DHT22;7115;50.150;8.568;2023-11-21T14:36:09;13.30;99.90
14079;DHT22;7115;50.150;8.568;2023-11-21T14:38:36;13.30;99.90
14079;DHT22;7115;50.150;8.568;2023-11-21T14:41:06;13.20;99.90
14079;DHT22;7115;50.150;8.568;2023-11-21T14:43:38;13.20;99.90
14079;DHT22;7115;50.150;8.568;2023-11-21T14:46:06;13.10;99.90
14079;DHT22;7115;50.150;8.568;2023-11-21T14:48:36;13.10;99.90
14079;DHT22;7115;50.150;8.568;2023-11-21T14:51:11;13.10;99.90
14079;DHT22;7115;50.150;8.568;2023-11-21T14:53:57;13.00;99.90
14079;DHT22;7115;50.150;8.568;2023-11-21T14:56:32;13.00;99.90
14079;DHT22;7115;50.150;8.568;2023-11-21T14:59:05;12.90;99.90
14079;DHT22;7115;50.150;8.568;2023-11-21T15:01:50;12.90;99.90
14079;DHT22;7115;50.150;8.568;2023-11-21T15:04:23;12.90;99.90
14079;DHT22;7115;50.150;8.568;2023-11-21T15:07:04;12.80;99.90
14079;DHT22;7115;50.150;8.568;2023-11-21T15:09:31;12.80;99.90
14079;DHT22;7115;50.150;8.568;2023-11-21T15:11:58;12.80;99.90
14079;DHT22;7115;50.150;8.568;2023-11-21T15:14:36;12.80;99.90
14079;DHT22;7115;50.150;8.568;2023-11-21T15:17:03;12.80;99.90
14079;DHT22;7115;50.150;8.568;2023-11-21T15:19:31;12.70;99.90
14079;DHT22;7115;50.150;8.568;2023-11-21T15:21:58;12.70;99.90
14079;DHT22;7115;50.150;8.568;2023-11-21T15:24:27;12.70;99.90
14079;DHT22;7115;50.150;8.568;2023-11-21T15:26:54;12.70;99.90
14079;DHT22;7115;50.150;8.568;2023-11-21T15:29:21;12.70;99.90
14079;DHT22;7115;50.150;8.568;2023-11-21T15:31:48;12.70;99.90
14079;DHT22;7115;50.150;8.568;2023-11-21T15:34:15;12.70;99.90
14079;DHT22;7115;50.150;8.568;2023-11-21T15:36:42;12.70;99.90
14079;DHT22;7115;50.150;8.568;2023-11-21T15:39:10;12.70;99.90
14079;DHT22;7115;50.150;8.568;2023-11-21T15:41:39;12.90;99.90
14079;DHT22;7115;50.150;8.568;2023-11-21T15:44:07;12.80;99.90
14079;DHT22;7115;50.150;8.568;2023-11-21T15:46:37;12.80;99.90
14079;DHT22;7115;50.150;8.568;2023-11-21T15:49:07;12.80;99.90
14079;DHT22;7115;50.150;8.568;2023-11-21T15:51:39;12.80;99.90
14079;DHT22;7115;50.150;8.568;2023-11-21T15:54:07;12.80;99.90
14079;DHT22;7115;50.150;8.568;2023-11-21T15:56:34;12.70;99.90